Latest Weather Observations for Lucas Heights (ANSTO)

IDN60801

Issued at 2:12 pm EST Thursday 28 May 2020 (issued every 10 minutes, with the page automatically refreshed every 10 minutes)

About weather observations | Map of weather stations | Latest weather observations for NSW | Other Formats
Station Details ID: 066023 Name: LUCAS HEIGHTS (ANSTO) Lat: -34.05 Lon: 150.98 Height: 140.0 m
Data from the previous 72 hours. | See also: Recent months for locations in New South Wales
Date/Time
EST
Temp
°C
App
Temp
°C
Dew
Point
°C
Rel
Hum
%
Delta-T
°C
Wind Press
QNH
hPa
Press
MSL
hPa
Rain since
9am
mm
Dir  Spd
km/h
Gust
km/h
Spd
kts
Gust
kts
28/02:00pm 20.5 18.4 11.0 54 5.2 SW 13 17 7 9 1019.2 - 0.0
28/01:45pm 20.3 17.8 11.1 55 5.1 SW 15 19 8 10 1019.3 - 0.0
28/01:30pm 20.1 18.1 11.5 57 4.8 SW 13 19 7 10 1019.4 - 0.0
28/01:15pm 19.6 17.1 11.2 58 4.6 SW 15 24 8 13 1019.5 - 0.0
28/01:00pm 19.4 16.9 11.1 58 4.6 WSW 15 20 8 11 1019.7 - 0.0
28/12:45pm 19.2 17.1 11.2 60 4.4 WSW 13 19 7 10 1019.9 - 0.0
28/12:30pm 18.9 17.2 11.2 61 4.2 WSW 11 19 6 10 1020.1 - 0.0
28/12:15pm 18.4 15.9 11.1 62 4.0 WSW 15 19 8 10 1020.2 - 0.0
28/12:00pm 18.1 15.2 11.0 63 3.9 W 17 19 9 10 1020.4 - 0.0
28/11:45am 17.9 15.4 11.0 64 3.8 W 15 19 8 10 1020.5 - 0.0
28/11:30am 17.4 14.5 10.9 65 3.5 WSW 17 19 9 10 1020.8 - 0.0
28/11:15am 17.0 14.1 10.9 67 3.3 W 17 19 9 10 1021.0 - 0.0
28/11:00am 16.5 13.9 10.7 68 3.1 W 15 19 8 10 1021.2 - 0.0
28/10:45am 16.2 13.6 10.7 70 2.9 W 15 19 8 10 1021.3 - 0.0
28/10:30am 15.6 12.9 10.5 71 2.7 W 15 19 8 10 1021.5 - 0.0
28/10:15am 15.1 12.4 10.4 73 2.5 W 15 17 8 9 1021.7 - 0.0
28/10:00am 14.7 12.0 10.2 74 2.4 W 15 17 8 9 1021.8 - 0.0
28/09:45am 14.5 12.1 10.2 75 2.3 W 13 17 7 9 1021.8 - 0.0
28/09:30am 14.5 12.5 10.2 75 2.3 W 11 17 6 9 1021.7 - 0.0
28/09:15am 14.3 12.2 9.9 75 2.3 WSW 11 19 6 10 1021.7 - 0.0
28/09:00am 13.9 10.6 9.7 76 2.2 WSW 17 19 9 10 1021.5 - 0.2
28/08:45am 13.6 9.8 9.7 77 2.0 WSW 20 22 11 12 1021.5 - 0.2
28/08:30am 13.4 9.7 10.1 80 1.7 WSW 20 22 11 12 1021.4 - 0.2
28/08:15am 12.9 9.3 10.6 86 1.2 WSW 20 19 11 10 1021.4 - 0.2
28/08:00am 12.3 8.0 10.7 90 0.8 SW 24 22 13 12 1021.3 - 0.2
28/07:45am 11.6 7.6 10.3 92 0.7 SW 22 20 12 11 1021.3 - 0.0
28/07:30am 11.0 6.4 9.8 92 0.6 SW 24 22 13 12 1021.2 - 0.0
28/07:15am 11.2 6.7 10.0 92 0.6 SW 24 22 13 12 1021.0 - 0.0
28/07:00am 11.6 7.2 10.5 93 0.6 SW 24 22 13 12 1020.8 - 0.0
28/06:45am 11.1 7.0 10.2 94 0.5 SW 22 22 12 12 1020.7 - 0.0
28/06:30am 9.6 5.7 8.6 93 0.5 SW 19 19 10 10 1020.6 - 0.0
28/06:15am 9.3 5.7 8.3 93 0.5 WSW 17 17 9 9 1020.5 - 0.0
28/06:00am 9.0 5.7 7.9 93 0.5 WSW 15 15 8 8 1020.4 - 0.0
28/05:45am 8.7 5.7 7.6 93 0.5 SW 13 13 7 7 1020.2 - 0.0
28/05:30am 8.9 5.9 7.8 93 0.5 SW 13 13 7 7 1020.1 - 0.0
28/05:15am 9.1 5.4 8.0 93 0.5 WSW 17 17 9 9 1020.1 - 0.0
28/05:00am 9.0 5.3 8.0 93 0.5 SW 17 17 9 9 1020.1 - 0.0
28/04:45am 9.1 5.8 8.0 93 0.5 WSW 15 15 8 8 1020.0 - 0.0
28/04:30am 9.2 6.3 8.1 93 0.5 WSW 13 13 7 7 1020.0 - 0.0
28/04:15am 9.3 6.8 8.2 93 0.5 WSW 11 11 6 6 1020.1 - 0.0
28/04:00am 9.4 6.9 8.3 93 0.5 SW 11 11 6 6 1020.0 - 0.0
28/03:45am 9.4 6.9 8.4 93 0.5 WSW 11 11 6 6 1020.1 - 0.0
28/03:30am 9.3 6.4 8.2 93 0.5 WSW 13 13 7 7 1020.2 - 0.0
28/03:15am 10.0 6.9 8.9 93 0.5 WSW 15 13 8 7 1020.3 - 0.0
28/03:00am 9.6 6.4 8.6 93 0.5 WSW 15 15 8 8 1020.3 - 0.0
28/02:45am 9.4 6.2 8.3 93 0.5 SW 15 13 8 7 1020.2 - 0.0
28/02:30am 9.2 5.9 8.1 93 0.5 WSW 15 13 8 7 1020.3 - 0.0
28/02:15am 9.2 5.9 8.1 93 0.5 WSW 15 13 8 7 1020.3 - 0.0
28/02:00am 9.2 5.9 8.1 93 0.5 WSW 15 13 8 7 1020.3 - 0.0
28/01:45am 9.1 6.2 8.0 93 0.5 WSW 13 13 7 7 1020.3 - 0.0
28/01:30am 9.2 6.3 8.0 92 0.6 SW 13 13 7 7 1020.2 - 0.0
28/01:15am 9.2 6.3 8.1 93 0.5 WSW 13 13 7 7 1020.2 - 0.0
28/01:00am 9.2 6.3 8.0 92 0.6 SW 13 11 7 6 1020.2 - 0.0
28/12:45am 9.2 6.3 8.0 92 0.6 SW 13 13 7 7 1020.3 - 0.0
28/12:30am 9.5 7.4 8.2 92 0.6 WSW 9 11 5 6 1020.4 - 0.0
28/12:15am 9.6 7.9 8.4 92 0.6 W 7 7 4 4 1020.4 - 0.0
28/12:00am 9.6 8.8 8.3 92 0.6 WSW 2 4 1 2 1020.4 - 0.0
 
Date/Time
EST
Temp
°C
App
Temp
°C
Dew
Point
°C
Rel
Hum
%
Delta-T
°C
Wind Press
QNH
hPa
Press
MSL
hPa
Rain since
9am
mm
Dir  Spd
km/h
Gust
km/h
Spd
kts
Gust
kts
27/11:45pm 9.6 8.9 8.4 92 0.6 WNW 2 4 1 2 1020.5 - 0.0
27/11:30pm 9.6 8.8 8.3 92 0.6 ESE 2 4 1 2 1020.5 - 0.0
27/11:15pm 9.8 9.1 8.5 92 0.6 SW 2 4 1 2 1020.8 - 0.0
27/11:00pm 9.9 8.4 8.6 92 0.6 SW 6 6 3 3 1021.0 - 0.0
27/10:45pm 10.1 8.5 8.7 91 0.7 SW 7 7 4 4 1021.0 - 0.0
27/10:30pm 10.8 9.4 9.4 91 0.7 WSW 7 11 4 6 1021.2 - 0.0
27/10:15pm 11.0 9.2 9.6 91 0.7 WSW 9 9 5 5 1021.3 - 0.0
27/10:00pm 10.7 9.4 9.3 91 0.7 WSW 6 7 3 4 1021.3 - 0.0
27/09:45pm 10.8 9.6 9.4 91 0.7 SSE 6 6 3 3 1021.3 - 0.0
27/09:30pm 10.9 9.5 9.4 90 0.8 ESE 7 7 4 4 1021.2 - 0.0
27/09:15pm 11.2 9.8 9.6 90 0.8 ESE 7 7 4 4 1021.2 - 0.0
27/09:00pm 11.6 10.3 9.9 89 0.9 ESE 7 7 4 4 1021.2 - 0.0
27/08:45pm 11.9 10.7 10.2 89 0.9 ESE 7 7 4 4 1021.2 - 0.0
27/08:30pm 12.0 10.4 10.3 89 0.9 ESE 9 11 5 6 1021.3 - 0.0
27/08:15pm 12.1 10.1 10.3 89 0.9 SE 11 11 6 6 1021.2 - 0.0
27/08:00pm 12.3 10.4 10.4 88 1.0 SE 11 11 6 6 1021.2 - 0.0
27/07:45pm 12.7 10.8 10.6 87 1.1 SE 11 11 6 6 1021.1 - 0.0
27/07:30pm 12.8 11.4 10.8 88 1.1 SE 9 11 5 6 1021.1 - 0.0
27/07:15pm 12.9 11.1 10.8 87 1.1 SSE 11 11 6 6 1021.0 - 0.0
27/07:00pm 12.8 11.0 10.7 87 1.1 SSE 11 11 6 6 1020.9 - 0.0
27/06:45pm 13.0 11.2 10.7 86 1.2 SE 11 11 6 6 1020.8 - 0.0
27/06:30pm 13.2 11.4 10.9 86 1.2 SSE 11 11 6 6 1020.7 - 0.0
27/06:15pm 13.3 11.5 10.9 85 1.3 SSE 11 11 6 6 1020.6 - 0.0
27/06:00pm 13.4 11.6 11.0 85 1.3 SE 11 11 6 6 1020.5 - 0.0
27/05:45pm 13.5 11.4 11.0 85 1.3 SSE 13 13 7 7 1020.4 - 0.0
27/05:30pm 13.7 11.9 11.0 84 1.4 SSE 11 11 6 6 1020.3 - 0.0
27/05:15pm 14.1 12.4 11.2 83 1.5 SE 11 13 6 7 1020.2 - 0.0
27/05:00pm 14.3 12.6 11.3 82 1.6 SE 11 13 6 7 1020.1 - 0.0
27/04:45pm 14.5 12.8 11.3 81 1.7 SE 11 11 6 6 1020.0 - 0.0
27/04:30pm 14.9 13.3 11.5 80 1.8 SE 11 11 6 6 1019.9 - 0.0
27/04:15pm 15.4 13.8 11.6 78 2.1 SE 11 13 6 7 1020.1 - 0.0
27/04:00pm 16.1 14.6 11.8 75 2.4 SE 11 13 6 7 1020.1 - 0.0
27/03:45pm 16.5 15.8 11.9 74 2.5 SE 7 11 4 6 1020.0 - 0.0
27/03:30pm 16.8 15.7 11.9 73 2.7 SE 9 11 5 6 1020.0 - 0.0
27/03:15pm 17.1 16.0 12.0 72 2.8 SE 9 11 5 6 1020.0 - 0.0
27/03:00pm 17.5 17.0 12.0 70 3.0 ESE 6 11 3 6 1020.0 - 0.0
27/02:45pm 17.2 16.5 12.0 71 2.9 SE 7 11 4 6 1020.2 - 0.0
27/02:30pm 16.9 16.2 12.1 73 2.7 SE 7 11 4 6 1020.4 - 0.0
27/02:15pm 16.4 15.8 11.8 74 2.5 ESE 6 9 3 5 1020.5 - 0.0
27/02:00pm 16.2 15.9 11.6 74 2.5 SE 4 6 2 3 1020.6 - 0.0
27/01:45pm 16.1 15.5 11.6 74 2.5 SE 6 9 3 5 1020.7 - 0.0
27/01:30pm 16.2 15.4 11.7 74 2.5 ESE 7 11 4 6 1020.8 - 0.0
27/01:15pm 16.3 15.5 11.6 74 2.6 ESE 7 11 4 6 1020.9 - 0.0
27/01:00pm 16.6 15.4 11.5 72 2.8 SE 9 13 5 7 1021.0 - 0.0
27/12:45pm 16.8 15.9 11.5 71 2.9 E 7 11 4 6 1021.0 - 0.0
27/12:30pm 16.7 16.0 11.3 70 2.9 ENE 6 7 3 4 1021.1 - 0.0
27/12:15pm 16.8 16.1 11.3 70 3.0 E 6 11 3 6 1021.2 - 0.0
27/12:00pm 16.6 15.0 11.5 72 2.8 SSE 11 13 6 7 1021.4 - 0.0
27/11:45am 16.8 15.6 11.5 71 2.9 SSE 9 15 5 8 1021.7 - 0.0
27/11:30am 17.4 16.5 11.4 68 3.3 ESE 7 11 4 6 1021.9 - 0.0
27/11:15am 16.8 15.5 11.3 70 3.0 ESE 9 13 5 7 1022.2 - 0.0
27/11:00am 17.0 15.4 11.6 70 3.0 ESE 11 15 6 8 1022.4 - 0.0
27/10:45am 16.8 15.2 11.7 72 2.8 SSE 11 17 6 9 1022.6 - 0.0
27/10:30am 16.9 15.4 12.0 73 2.7 SSE 11 17 6 9 1022.8 - 0.0
27/10:15am 16.5 14.3 12.0 75 2.5 SSE 15 19 8 10 1022.8 - 0.0
27/10:00am 15.9 14.4 12.0 77 2.1 SSE 11 17 6 9 1022.8 - 0.0
27/09:45am 15.6 14.7 12.7 83 1.6 SSE 9 13 5 7 1022.8 - 0.0
27/09:30am 14.6 13.4 12.9 89 0.9 S 11 13 6 7 1022.8 - 0.0
27/09:15am 12.8 11.2 11.4 91 0.7 S 11 11 6 6 1022.9 - 0.0
27/09:00am 11.7 9.7 10.3 91 0.7 SSW 11 13 6 7 1023.0 - 2.1
27/08:45am 11.3 9.2 9.9 91 0.7 SSW 11 13 6 7 1023.1 - 2.1
27/08:30am 11.0 9.3 9.7 92 0.7 SSW 9 11 5 6 1023.2 - 2.1
27/08:15am 10.4 9.1 9.1 92 0.6 SSW 6 9 3 5 1023.2 - 2.1
27/08:00am 10.2 8.8 8.9 92 0.6 SW 6 13 3 7 1022.9 - 2.1
27/07:45am 9.9 6.3 8.4 90 0.7 S 17 19 9 10 1022.7 - 2.1
27/07:30am 10.0 6.4 8.5 90 0.7 S 17 17 9 9 1022.7 - 2.1
27/07:15am 10.2 6.7 8.6 90 0.8 S 17 17 9 9 1022.6 - 2.1
27/07:00am 10.7 8.0 9.1 90 0.8 S 13 15 7 8 1022.5 - 2.1
27/06:45am 10.9 7.6 9.4 90 0.8 S 17 17 9 9 1022.4 - 2.1
27/06:30am 11.0 7.7 9.5 90 0.8 S 17 17 9 9 1022.4 - 2.1
27/06:15am 11.0 7.7 9.5 90 0.8 SSW 17 17 9 9 1022.3 - 2.1
27/06:00am 10.9 7.6 9.4 90 0.8 SSW 17 17 9 9 1022.2 - 2.1
27/05:45am 10.8 7.4 9.3 90 0.8 SSW 17 17 9 9 1022.2 - 2.1
27/05:30am 11.0 7.7 9.5 90 0.8 SW 17 17 9 9 1022.1 - 2.1
27/05:15am 11.0 8.1 9.5 90 0.8 SW 15 17 8 9 1022.1 - 2.1
27/05:00am 10.5 8.2 9.1 91 0.7 WSW 11 13 6 7 1022.2 - 2.1
27/04:45am 10.5 9.0 9.0 90 0.7 SSW 7 11 4 6 1022.2 - 2.1
27/04:30am 10.8 7.8 9.3 90 0.8 S 15 17 8 9 1022.2 - 2.1
27/04:15am 10.8 7.4 9.2 90 0.8 SSE 17 17 9 9 1022.3 - 2.1
27/04:00am 10.7 7.3 9.0 89 0.8 S 17 19 9 10 1022.3 - 2.1
27/03:45am 11.4 8.5 9.7 89 0.9 S 15 19 8 10 1022.2 - 2.1
27/03:30am 12.0 9.7 10.3 89 0.9 SSW 13 17 7 9 1022.3 - 2.1
27/03:15am 12.1 9.1 10.5 90 0.8 SSW 17 19 9 10 1022.6 - 2.1
27/03:00am 11.8 9.4 10.2 90 0.8 S 13 17 7 9 1022.8 - 2.1
27/02:45am 12.0 8.6 10.4 90 0.8 S 19 20 10 11 1022.8 - 2.1
27/02:30am 12.2 8.8 10.6 90 0.8 S 19 19 10 10 1022.9 - 2.1
27/02:15am 12.3 9.3 10.7 90 0.8 SSW 17 19 9 10 1022.9 - 2.1
27/02:00am 12.1 9.1 10.5 90 0.8 S 17 17 9 9 1023.1 - 2.1
27/01:45am 12.1 10.2 10.5 90 0.8 SE 11 17 6 9 1023.3 - 1.9
27/01:30am 11.9 8.8 10.2 89 0.9 SSE 17 22 9 12 1023.3 - 1.9
27/01:15am 11.8 9.4 10.1 89 0.9 S 13 15 7 8 1023.3 - 1.7
27/01:00am 11.9 9.9 10.2 89 0.9 S 11 13 6 7 1023.4 - 1.7
27/12:45am 11.9 9.2 10.2 89 0.9 SSW 15 15 8 8 1023.3 - 1.7
27/12:30am 12.4 10.1 10.5 88 1.0 SW 13 13 7 7 1023.3 - 1.7
27/12:15am 12.7 10.9 10.9 89 0.9 SSW 11 13 6 7 1023.5 - 1.7
27/12:00am 12.7 11.7 11.0 89 0.9 SSW 7 11 4 6 1023.7 - 1.7
 
Date/Time
EST
Temp
°C
App
Temp
°C
Dew
Point
°C
Rel
Hum
%
Delta-T
°C
Wind Press
QNH
hPa
Press
MSL
hPa
Rain since
9am
mm
Dir  Spd
km/h
Gust
km/h
Spd
kts
Gust
kts
26/11:45pm 12.6 11.5 10.8 89 0.9 NNE 7 17 4 9 1023.9 - 1.5
26/11:30pm 12.8 11.0 10.8 88 1.1 S 11 17 6 9 1023.9 - 1.5
26/11:15pm 12.8 9.8 10.7 87 1.1 S 17 22 9 12 1023.9 - 1.5
26/11:00pm 13.1 10.1 10.7 85 1.3 SSW 17 22 9 12 1023.7 - 1.3
26/10:45pm 13.1 10.5 10.8 86 1.2 S 15 19 8 10 1023.6 - 1.3
26/10:30pm 13.0 10.0 10.6 85 1.3 S 17 17 9 9 1023.5 - 1.3
26/10:15pm 13.3 10.8 10.9 85 1.3 SSE 15 17 8 9 1023.6 - 1.3
26/10:00pm 13.2 9.7 11.0 86 1.2 S 20 26 11 14 1023.6 - 1.3
26/09:45pm 13.4 10.6 11.2 86 1.2 S 17 17 9 9 1023.6 - 1.3
26/09:30pm 13.4 10.6 11.3 87 1.1 S 17 20 9 11 1023.6 - 1.3
26/09:15pm 13.2 10.0 11.1 87 1.1 S 19 19 10 10 1023.6 - 1.3
26/09:00pm 13.0 10.5 10.9 87 1.1 S 15 19 8 10 1023.6 - 1.3
26/08:45pm 12.9 10.3 10.7 86 1.2 S 15 17 8 9 1023.6 - 1.3
26/08:30pm 13.4 10.9 10.9 85 1.3 S 15 19 8 10 1023.6 - 1.3
26/08:15pm 13.5 10.7 11.2 86 1.2 S 17 19 9 10 1023.7 - 1.1
26/08:00pm 13.3 10.5 11.3 88 1.1 S 17 20 9 11 1023.6 - 1.1
26/07:45pm 13.2 10.4 11.2 88 1.1 S 17 22 9 12 1023.6 - 1.1
26/07:30pm 13.1 11.3 11.0 87 1.1 S 11 13 6 7 1023.4 - 1.1
26/07:15pm 13.1 10.9 10.9 86 1.2 S 13 17 7 9 1023.3 - 1.1
26/07:00pm 13.4 10.8 10.8 84 1.4 S 15 20 8 11 1023.3 - 1.1
26/06:45pm 13.8 10.8 10.8 82 1.6 SSE 17 19 9 10 1023.1 - 1.1
26/06:30pm 14.1 11.1 10.7 80 1.8 S 17 22 9 12 1022.9 - 1.1
26/06:15pm 13.9 11.7 10.7 81 1.7 SSE 13 26 7 14 1023.0 - 1.1
26/06:00pm 13.9 12.1 10.7 81 1.7 SE 11 13 6 7 1022.9 - 1.1
26/05:45pm 13.9 12.0 10.6 80 1.7 SE 11 13 6 7 1022.8 - 1.1
26/05:30pm 14.1 11.8 10.4 78 1.9 SSE 13 17 7 9 1022.7 - 1.1
26/05:15pm 14.4 12.1 10.4 77 2.1 SSE 13 19 7 10 1022.6 - 1.1
26/05:00pm 14.7 11.6 10.3 75 2.3 SSE 17 22 9 12 1022.6 - 1.1
26/04:45pm 15.3 10.5 10.4 72 2.6 SSE 26 35 14 19 1022.6 - 1.1
26/04:30pm 15.4 12.4 10.8 74 2.5 SE 17 26 9 14 1022.4 - 1.1
26/04:15pm 15.3 12.4 11.1 76 2.3 SSE 17 22 9 12 1022.3 - 1.1
26/04:00pm 14.8 11.7 11.7 82 1.7 SSE 19 22 10 12 1022.1 - 1.1
26/03:45pm 14.8 12.5 11.9 83 1.6 S 15 19 8 10 1022.0 - 1.1
26/03:30pm 14.7 12.4 11.7 82 1.6 SSE 15 22 8 12 1021.9 - 1.1
26/03:15pm 14.7 10.9 11.3 80 1.8 SE 22 32 12 17 1021.9 - 1.1
26/03:00pm 16.3 11.3 11.1 71 2.8 SE 28 44 15 24 1021.8 - 1.1
26/02:45pm 16.6 12.8 11.0 69 3.0 SE 22 33 12 18 1021.8 - 1.1
26/02:30pm 16.8 12.7 11.3 70 3.0 SE 24 39 13 21 1021.7 - 1.1
26/02:15pm 16.5 11.6 11.4 72 2.8 ESE 28 39 15 21 1021.6 - 1.1
26/02:00pm 16.5 12.7 11.1 70 2.9 SE 22 37 12 20 1021.6 - 1.1
26/01:45pm 16.4 12.9 10.9 70 3.0 SE 20 28 11 15 1021.7 - 1.1
26/01:30pm 16.6 13.2 11.4 71 2.8 SSE 20 33 11 18 1021.8 - 1.1
26/01:15pm 16.2 12.8 11.2 72 2.7 SE 20 28 11 15 1022.1 - 1.1
26/01:00pm 16.6 12.8 11.1 70 3.0 SSE 22 35 12 19 1022.2 - 1.1
26/12:45pm 16.7 13.1 10.7 67 3.2 SSE 20 28 11 15 1022.2 - 1.1
26/12:30pm 16.8 12.0 10.3 65 3.5 SSE 26 37 14 20 1022.3 - 1.1
26/12:15pm 16.9 13.1 11.3 69 3.0 SSE 22 32 12 17 1022.4 - 1.1
26/12:00pm 16.7 13.0 11.4 71 2.9 SE 22 32 12 17 1022.5 - 1.1
26/11:45am 16.4 12.7 12.7 79 2.1 SE 24 32 13 17 1022.8 - 1.1
26/11:30am 15.5 13.3 13.2 86 1.3 SSE 17 26 9 14 1022.9 - 1.1
26/11:15am 15.2 13.0 13.2 88 1.1 S 17 20 9 11 1023.1 - 0.9
26/11:00am 15.1 12.9 13.3 89 1.0 S 17 24 9 13 1023.2 - 0.9
26/10:45am 14.7 12.1 13.1 90 0.9 SSE 19 24 10 13 1023.3 - 0.9
26/10:30am 14.4 10.0 12.8 90 0.9 SSE 28 35 15 19 1023.2 - 0.9
26/10:15am 14.4 11.1 12.8 90 0.9 SSE 22 35 12 19 1023.1 - 0.9
26/10:00am 14.7 11.8 12.9 89 1.0 SSE 20 26 11 14 1023.1 - 0.6
26/09:45am 15.0 12.3 13.4 90 0.9 SSE 20 28 11 15 1023.1 - 0.2
26/09:30am 14.4 11.5 12.8 90 0.9 SSE 20 28 11 15 1023.0 - 0.2
26/09:15am 14.5 11.8 12.9 90 0.9 SSE 19 28 10 15 1023.0 - 0.2
26/09:00am 14.0 11.0 12.5 91 0.8 SSE 20 28 11 15 1022.8 - 5.7
26/08:45am 13.8 11.3 12.3 91 0.8 SSE 17 22 9 12 1022.7 - 5.7
26/08:30am 13.7 10.6 12.2 91 0.8 S 20 30 11 16 1022.6 - 5.7
26/08:15am 13.3 10.3 11.8 91 0.8 S 19 28 10 15 1022.6 - 5.7
26/08:00am 13.1 10.3 11.5 90 0.9 SSE 17 22 9 12 1022.4 - 5.7
26/07:45am 13.0 10.2 11.4 90 0.9 S 17 26 9 14 1022.3 - 5.7
26/07:30am 12.9 9.7 11.2 89 0.9 S 19 24 10 13 1022.3 - 5.5
26/07:15am 12.9 10.0 11.1 89 1.0 S 17 20 9 11 1022.1 - 5.5
26/07:00am 13.1 9.9 11.2 88 1.0 S 19 26 10 14 1022.1 - 5.5
26/06:45am 13.0 9.8 11.2 89 1.0 S 19 28 10 15 1021.9 - 5.5
26/06:30am 12.8 9.6 11.1 89 0.9 S 19 30 10 16 1021.7 - 5.5
26/06:15am 12.8 9.0 11.0 89 1.0 S 22 33 12 18 1021.6 - 5.5
26/06:00am 12.8 8.5 10.8 88 1.1 S 24 33 13 18 1021.4 - 5.5
26/05:45am 12.9 8.6 10.9 88 1.1 S 24 32 13 17 1021.5 - 5.3
26/05:30am 12.8 8.2 10.9 88 1.0 S 26 37 14 20 1021.4 - 5.3
26/05:15am 12.9 7.9 11.0 88 1.0 S 28 39 15 21 1021.2 - 5.3
26/05:00am 12.9 7.9 11.1 89 1.0 S 28 37 15 20 1021.0 - 5.3
26/04:45am 12.8 7.5 11.1 89 0.9 S 30 41 16 22 1021.0 - 5.3
26/04:30am 12.7 7.3 10.9 89 0.9 S 30 39 16 21 1020.8 - 5.3
26/04:15am 12.7 7.3 10.8 88 1.0 S 30 39 16 21 1020.8 - 5.3
26/04:00am 13.1 7.7 11.0 87 1.1 S 30 37 16 20 1021.0 - 5.3
26/03:45am 13.3 7.4 11.2 87 1.1 S 33 43 18 23 1021.0 - 5.1
26/03:30am 13.1 7.8 11.2 88 1.0 S 30 43 16 23 1020.9 - 5.1
26/03:15am 12.9 7.9 11.0 88 1.0 S 28 37 15 20 1020.8 - 5.1
26/03:00am 12.8 6.5 11.0 89 1.0 S 35 48 19 26 1020.8 - 5.1
26/02:45am 12.7 7.3 10.9 89 0.9 S 30 41 16 22 1020.9 - 5.1
26/02:30am 12.5 7.5 10.8 89 0.9 S 28 39 15 21 1021.0 - 5.1
26/02:15am 12.4 6.5 10.6 89 0.9 S 32 43 17 23 1021.0 - 5.1
26/02:00am 12.6 5.8 10.7 88 1.0 S 37 46 20 25 1021.0 - 4.9
26/01:45am 12.5 6.4 10.6 88 1.0 S 33 46 18 25 1021.0 - 4.9
26/01:30am 12.4 5.6 10.6 89 0.9 S 37 46 20 25 1020.9 - 4.9
26/01:15am 12.3 5.8 10.5 89 0.9 S 35 46 19 25 1021.0 - 4.9
26/01:00am 12.2 6.1 10.4 89 0.9 S 33 48 18 26 1021.1 - 4.9
26/12:45am 12.1 6.0 10.4 89 0.9 S 33 44 18 24 1021.1 - 4.9
26/12:30am 12.3 5.9 10.6 89 0.9 S 35 50 19 27 1021.2 - 4.9
26/12:15am 12.4 7.0 10.8 90 0.8 S 30 41 16 22 1021.2 - 4.9
26/12:00am 12.2 6.3 10.6 90 0.8 S 32 39 17 21 1021.2 - 4.9
 
Date/Time
EST
Temp
°C
App
Temp
°C
Dew
Point
°C
Rel
Hum
%
Delta-T
°C
Wind Press
QNH
hPa
Press
MSL
hPa
Rain since
9am
mm
Dir  Spd
km/h
Gust
km/h
Spd
kts
Gust
kts
25/11:45pm 12.1 5.3 10.5 90 0.8 S 37 54 20 29 1021.1 - 4.8
25/11:30pm 12.3 5.5 10.6 89 0.9 S 37 52 20 28 1021.0 - 4.6
25/11:15pm 12.4 5.6 10.8 90 0.8 S 37 52 20 28 1021.0 - 4.4
25/11:00pm 12.3 6.3 10.8 90 0.8 S 33 43 18 23 1020.9 - 4.2
25/10:45pm 12.3 6.5 10.8 90 0.8 S 32 44 17 24 1020.8 - 4.2
25/10:30pm 12.3 6.8 10.7 90 0.8 S 30 43 16 23 1020.9 - 4.0
25/10:15pm 12.3 6.3 10.8 90 0.8 S 33 44 18 24 1020.8 - 3.8
25/10:00pm 12.5 6.5 10.9 90 0.8 S 33 43 18 23 1020.6 - 3.6
25/09:45pm 12.6 6.7 11.0 90 0.8 S 33 46 18 25 1020.4 - 3.4
25/09:30pm 12.6 5.5 11.0 90 0.8 S 39 57 21 31 1020.4 - 3.4
25/09:15pm 12.6 7.2 11.0 90 0.8 S 30 50 16 27 1020.4 - 3.0
25/09:00pm 12.6 6.8 10.9 89 0.9 S 32 46 17 25 1020.2 - 2.7
25/08:45pm 12.6 5.9 10.9 89 0.9 S 37 50 20 27 1020.0 - 2.5
25/08:30pm 12.6 5.1 10.9 89 0.9 S 41 56 22 30 1019.8 - 1.9
25/08:15pm 12.7 5.2 10.9 89 0.9 S 41 54 22 29 1019.8 - 1.5
25/08:00pm 12.6 5.5 10.8 89 0.9 S 39 56 21 30 1019.7 - 1.3
25/07:45pm 12.7 5.2 10.8 88 1.0 S 41 59 22 32 1019.5 - 1.1
25/07:30pm 12.7 5.5 10.7 88 1.0 S 39 46 21 25 1019.3 - 0.9
25/07:15pm 12.7 5.5 10.7 88 1.0 S 39 54 21 29 1019.2 - 0.8
25/07:00pm 12.7 5.5 10.7 88 1.0 S 39 54 21 29 1019.1 - 0.8
25/06:45pm 12.8 5.6 10.6 86 1.2 S 39 52 21 28 1018.9 - 0.6
25/06:30pm 13.0 5.1 10.8 86 1.2 S 43 56 23 30 1018.9 - 0.4
25/06:15pm 12.9 4.8 10.7 86 1.2 S 44 56 24 30 1018.7 - 0.4
25/06:00pm 12.9 4.9 10.6 86 1.2 S 43 63 23 34 1018.4 - 0.2
25/05:45pm 13.1 5.1 10.6 85 1.3 S 43 57 23 31 1018.4 - 0.2
25/05:30pm 13.2 5.1 10.6 84 1.4 S 44 56 24 30 1018.2 - 0.0
25/05:15pm 13.3 5.3 10.5 83 1.5 S 43 56 23 30 1018.1 - 0.0
25/05:00pm 13.4 4.8 10.4 82 1.6 S 46 59 25 32 1018.0 - 0.0
25/04:45pm 13.6 5.4 10.3 80 1.7 S 44 57 24 31 1017.8 - 0.0
25/04:30pm 14.2 6.5 10.2 77 2.1 S 41 54 22 29 1017.8 - 0.0
25/04:15pm 14.5 7.6 10.2 75 2.3 S 37 59 20 32 1017.6 - 0.0
25/04:00pm 14.6 6.5 10.1 74 2.4 S 43 59 23 32 1017.5 - 0.0
25/03:45pm 14.7 6.6 10.0 73 2.5 S 43 61 23 33 1017.5 - 0.0
25/03:30pm 14.7 7.0 10.0 73 2.5 S 41 63 22 34 1017.4 - 0.0
25/03:15pm 14.9 8.3 10.0 72 2.6 S 35 57 19 31 1017.3 - 0.0
25/03:00pm 15.1 8.1 10.1 72 2.6 S 37 56 20 30 1017.1 - 0.0
25/02:45pm 15.2 7.9 10.1 71 2.7 S 39 63 21 34 1017.1 - 0.0
25/02:30pm 15.4 8.8 10.1 70 2.8 S 35 52 19 28 1017.1 - 0.0
25/02:15pm 15.4 9.2 10.0 70 2.8 S 33 44 18 24 1017.1 - 0.0

Other formats

Comma delimited format used in spreadsheet applications
http://www.bom.gov.au/fwo/IDN60801/IDN60801.95757.axf

JavaScript Object Notation format (JSON) in row-major order
http://www.bom.gov.au/fwo/IDN60801/IDN60801.95757.json

Data quality

Most of these data are generated automatically and are frequently updated. Quality checks on data are not normally performed. It is possible for incorrect values to appear. Refer to information at About Latest Weather Observations and please check the disclaimer before using these data.